sensor_id;sensor_type;location;lat;lon;timestamp;temperature;humidity
8858;DHT22;4465;50.904;4.696;2023-04-25T00:00:58;8.40;99.90
8858;DHT22;4465;50.904;4.696;2023-04-25T00:03:24;8.40;99.90
8858;DHT22;4465;50.904;4.696;2023-04-25T00:05:50;8.40;99.90
8858;DHT22;4465;50.904;4.696;2023-04-25T00:08:17;8.40;99.90
8858;DHT22;4465;50.904;4.696;2023-04-25T00:10:43;8.40;99.90
8858;DHT22;4465;50.904;4.696;2023-04-25T00:13:11;8.40;99.90
8858;DHT22;4465;50.904;4.696;2023-04-25T00:15:37;8.40;99.90
8858;DHT22;4465;50.904;4.696;2023-04-25T00:18:03;8.40;99.90
8858;DHT22;4465;50.904;4.696;2023-04-25T00:20:31;8.40;99.90
8858;DHT22;4465;50.904;4.696;2023-04-25T00:22:57;8.50;99.90
8858;DHT22;4465;50.904;4.696;2023-04-25T00:25:23;8.50;99.90
8858;DHT22;4465;50.904;4.696;2023-04-25T00:27:49;8.50;99.90
8858;DHT22;4465;50.904;4.696;2023-04-25T00:30:14;8.50;99.90
8858;DHT22;4465;50.904;4.696;2023-04-25T00:32:40;8.40;99.90
8858;DHT22;4465;50.904;4.696;2023-04-25T00:35:06;8.40;99.90
8858;DHT22;4465;50.904;4.696;2023-04-25T00:37:32;8.50;99.90
8858;DHT22;4465;50.904;4.696;2023-04-25T00:39:58;8.50;99.90
8858;DHT22;4465;50.904;4.696;2023-04-25T00:42:24;8.50;99.90
8858;DHT22;4465;50.904;4.696;2023-04-25T00:44:53;8.50;99.90
8858;DHT22;4465;50.904;4.696;2023-04-25T00:47:20;8.50;99.90
8858;DHT22;4465;50.904;4.696;2023-04-25T00:49:51;8.50;99.90
8858;DHT22;4465;50.904;4.696;2023-04-25T00:52:21;8.50;99.90
8858;DHT22;4465;50.904;4.696;2023-04-25T00:54:49;8.50;99.90
8858;DHT22;4465;50.904;4.696;2023-04-25T00:57:15;8.40;99.90
8858;DHT22;4465;50.904;4.696;2023-04-25T00:59:41;8.50;99.90
8858;DHT22;4465;50.904;4.696;2023-04-25T01:02:09;8.50;99.90
8858;DHT22;4465;50.904;4.696;2023-04-25T01:04:40;8.50;99.90
8858;DHT22;4465;50.904;4.696;2023-04-25T01:07:08;8.50;99.90
8858;DHT22;4465;50.904;4.696;2023-04-25T01:09:34;8.40;99.90
8858;DHT22;4465;50.904;4.696;2023-04-25T01:12:00;8.40;99.90
8858;DHT22;4465;50.904;4.696;2023-04-25T01:14:26;8.40;99.90
8858;DHT22;4465;50.904;4.696;2023-04-25T01:16:52;8.50;99.90
8858;DHT22;4465;50.904;4.696;2023-04-25T01:19:18;8.40;99.90
8858;DHT22;4465;50.904;4.696;2023-04-25T01:21:47;8.50;99.90
8858;DHT22;4465;50.904;4.696;2023-04-25T01:24:13;8.40;99.90
8858;DHT22;4465;50.904;4.696;2023-04-25T01:26:41;8.40;99.90
8858;DHT22;4465;50.904;4.696;2023-04-25T01:29:10;8.40;99.90
8858;DHT22;4465;50.904;4.696;2023-04-25T01:31:37;8.50;99.90
8858;DHT22;4465;50.904;4.696;2023-04-25T01:34:03;8.40;99.90
8858;DHT22;4465;50.904;4.696;2023-04-25T01:36:29;8.40;99.90
8858;DHT22;4465;50.904;4.696;2023-04-25T01:38:56;8.40;99.90
8858;DHT22;4465;50.904;4.696;2023-04-25T01:41:22;8.40;99.90
8858;DHT22;4465;50.904;4.696;2023-04-25T01:43:48;8.40;99.90
8858;DHT22;4465;50.904;4.696;2023-04-25T01:46:14;8.40;99.90
8858;DHT22;4465;50.904;4.696;2023-04-25T01:48:40;8.40;99.90
8858;DHT22;4465;50.904;4.696;2023-04-25T01:51:08;8.40;99.90
8858;DHT22;4465;50.904;4.696;2023-04-25T01:53:35;8.40;99.90
8858;DHT22;4465;50.904;4.696;2023-04-25T01:56:01;8.40;99.90
8858;DHT22;4465;50.904;4.696;2023-04-25T01:58:26;8.40;99.90
8858;DHT22;4465;50.904;4.696;2023-04-25T02:00:52;8.40;99.90
8858;DHT22;4465;50.904;4.696;2023-04-25T02:03:18;8.40;99.90
8858;DHT22;4465;50.904;4.696;2023-04-25T02:05:44;8.40;99.90
8858;DHT22;4465;50.904;4.696;2023-04-25T02:08:10;8.40;99.90
8858;DHT22;4465;50.904;4.696;2023-04-25T02:10:35;8.40;99.90
8858;DHT22;4465;50.904;4.696;2023-04-25T02:13:02;8.30;99.90
8858;DHT22;4465;50.904;4.696;2023-04-25T02:15:28;8.30;99.90
8858;DHT22;4465;50.904;4.696;2023-04-25T02:17:53;8.30;99.90
8858;DHT22;4465;50.904;4.696;2023-04-25T02:20:23;8.30;99.90
8858;DHT22;4465;50.904;4.696;2023-04-25T02:22:49;8.30;99.90
8858;DHT22;4465;50.904;4.696;2023-04-25T02:25:16;8.30;99.90
8858;DHT22;4465;50.904;4.696;2023-04-25T02:27:42;8.30;99.90
8858;DHT22;4465;50.904;4.696;2023-04-25T02:30:08;8.30;99.90
8858;DHT22;4465;50.904;4.696;2023-04-25T02:32:34;8.30;99.90
8858;DHT22;4465;50.904;4.696;2023-04-25T02:35:00;8.30;99.90
8858;DHT22;4465;50.904;4.696;2023-04-25T02:37:32;8.20;99.90
8858;DHT22;4465;50.904;4.696;2023-04-25T02:40:00;8.20;99.90
8858;DHT22;4465;50.904;4.696;2023-04-25T02:42:26;8.20;99.90
8858;DHT22;4465;50.904;4.696;2023-04-25T02:44:53;8.20;99.90
8858;DHT22;4465;50.904;4.696;2023-04-25T02:47:18;8.20;99.90
8858;DHT22;4465;50.904;4.696;2023-04-25T02:49:49;8.20;99.90
8858;DHT22;4465;50.904;4.696;2023-04-25T02:52:15;8.20;99.90
8858;DHT22;4465;50.904;4.696;2023-04-25T02:54:41;8.20;99.90
8858;DHT22;4465;50.904;4.696;2023-04-25T02:57:07;8.20;99.90
8858;DHT22;4465;50.904;4.696;2023-04-25T02:59:35;8.20;99.90
8858;DHT22;4465;50.904;4.696;2023-04-25T03:02:03;8.20;99.90
8858;DHT22;4465;50.904;4.696;2023-04-25T03:04:28;8.20;99.90
8858;DHT22;4465;50.904;4.696;2023-04-25T03:06:54;8.20;99.90
8858;DHT22;4465;50.904;4.696;2023-04-25T03:09:20;8.30;99.90
8858;DHT22;4465;50.904;4.696;2023-04-25T03:11:46;8.20;99.90
8858;DHT22;4465;50.904;4.696;2023-04-25T03:14:12;8.20;99.90
8858;DHT22;4465;50.904;4.696;2023-04-25T03:16:38;8.20;99.90
8858;DHT22;4465;50.904;4.696;2023-04-25T03:19:04;8.20;99.90
8858;DHT22;4465;50.904;4.696;2023-04-25T03:21:33;8.10;99.90
8858;DHT22;4465;50.904;4.696;2023-04-25T03:24:04;8.20;99.90
8858;DHT22;4465;50.904;4.696;2023-04-25T03:26:32;8.10;99.90
8858;DHT22;4465;50.904;4.696;2023-04-25T03:28:58;8.10;99.90
8858;DHT22;4465;50.904;4.696;2023-04-25T03:31:24;8.20;99.90
8858;DHT22;4465;50.904;4.696;2023-04-25T03:33:50;8.10;99.90
8858;DHT22;4465;50.904;4.696;2023-04-25T03:36:18;8.10;99.90
8858;DHT22;4465;50.904;4.696;2023-04-25T03:38:44;8.10;99.90
8858;DHT22;4465;50.904;4.696;2023-04-25T03:41:10;8.10;99.90
8858;DHT22;4465;50.904;4.696;2023-04-25T03:43:40;8.10;99.90
8858;DHT22;4465;50.904;4.696;2023-04-25T03:46:06;8.10;99.90
8858;DHT22;4465;50.904;4.696;2023-04-25T03:48:32;8.10;99.90
8858;DHT22;4465;50.904;4.696;2023-04-25T03:50:58;8.00;99.90
8858;DHT22;4465;50.904;4.696;2023-04-25T03:53:23;8.00;99.90
8858;DHT22;4465;50.904;4.696;2023-04-25T03:55:49;8.00;99.90
8858;DHT22;4465;50.904;4.696;2023-04-25T03:58:17;8.00;99.90
8858;DHT22;4465;50.904;4.696;2023-04-25T04:00:43;7.90;99.90
8858;DHT22;4465;50.904;4.696;2023-04-25T04:03:09;7.90;99.90
8858;DHT22;4465;50.904;4.696;2023-04-25T04:05:36;7.90;99.90
8858;DHT22;4465;50.904;4.696;2023-04-25T04:08:05;7.80;99.90
8858;DHT22;4465;50.904;4.696;2023-04-25T04:10:33;7.80;99.90
8858;DHT22;4465;50.904;4.696;2023-04-25T04:12:59;7.80;99.90
8858;DHT22;4465;50.904;4.696;2023-04-25T04:15:24;7.80;99.90
8858;DHT22;4465;50.904;4.696;2023-04-25T04:17:50;7.70;99.90
8858;DHT22;4465;50.904;4.696;2023-04-25T04:20:16;7.70;99.90
8858;DHT22;4465;50.904;4.696;2023-04-25T04:22:42;7.70;99.90
8858;DHT22;4465;50.904;4.696;2023-04-25T04:25:08;7.70;99.90
8858;DHT22;4465;50.904;4.696;2023-04-25T04:27:35;7.70;99.90
8858;DHT22;4465;50.904;4.696;2023-04-25T04:30:04;7.60;99.90
8858;DHT22;4465;50.904;4.696;2023-04-25T04:32:30;7.60;99.90
8858;DHT22;4465;50.904;4.696;2023-04-25T04:35:00;7.60;99.90
8858;DHT22;4465;50.904;4.696;2023-04-25T04:37:25;7.60;99.90
8858;DHT22;4465;50.904;4.696;2023-04-25T04:39:51;7.60;99.90
8858;DHT22;4465;50.904;4.696;2023-04-25T04:42:17;7.60;99.90
8858;DHT22;4465;50.904;4.696;2023-04-25T04:44:45;7.60;99.90
8858;DHT22;4465;50.904;4.696;2023-04-25T04:47:11;7.50;99.90
8858;DHT22;4465;50.904;4.696;2023-04-25T04:49:38;7.60;99.90
8858;DHT22;4465;50.904;4.696;2023-04-25T04:52:03;7.50;99.90
8858;DHT22;4465;50.904;4.696;2023-04-25T04:54:31;7.50;99.90
8858;DHT22;4465;50.904;4.696;2023-04-25T04:56:57;7.50;99.90
8858;DHT22;4465;50.904;4.696;2023-04-25T04:59:26;7.50;99.90
8858;DHT22;4465;50.904;4.696;2023-04-25T05:01:52;7.50;99.90
8858;DHT22;4465;50.904;4.696;2023-04-25T05:04:18;7.50;99.90
8858;DHT22;4465;50.904;4.696;2023-04-25T05:06:43;7.50;99.90
8858;DHT22;4465;50.904;4.696;2023-04-25T05:09:10;7.50;99.90
8858;DHT22;4465;50.904;4.696;2023-04-25T05:11:36;7.50;99.90
8858;DHT22;4465;50.904;4.696;2023-04-25T05:14:01;7.50;99.90
8858;DHT22;4465;50.904;4.696;2023-04-25T05:16:27;7.50;99.90
8858;DHT22;4465;50.904;4.696;2023-04-25T05:18:53;7.50;99.90
8858;DHT22;4465;50.904;4.696;2023-04-25T05:21:19;7.50;99.90
8858;DHT22;4465;50.904;4.696;2023-04-25T05:23:44;7.50;99.90
8858;DHT22;4465;50.904;4.696;2023-04-25T05:26:10;7.50;99.90
8858;DHT22;4465;50.904;4.696;2023-04-25T05:28:39;7.50;99.90
8858;DHT22;4465;50.904;4.696;2023-04-25T05:31:06;7.50;99.90
8858;DHT22;4465;50.904;4.696;2023-04-25T05:33:34;7.50;99.90
8858;DHT22;4465;50.904;4.696;2023-04-25T05:36:00;7.50;99.90
8858;DHT22;4465;50.904;4.696;2023-04-25T05:38:26;7.50;99.90
8858;DHT22;4465;50.904;4.696;2023-04-25T05:40:52;7.60;99.90
8858;DHT22;4465;50.904;4.696;2023-04-25T05:43:20;7.50;99.90
8858;DHT22;4465;50.904;4.696;2023-04-25T05:45:46;7.50;99.90
8858;DHT22;4465;50.904;4.696;2023-04-25T05:48:12;7.50;99.90
8858;DHT22;4465;50.904;4.696;2023-04-25T05:50:38;7.60;99.90
8858;DHT22;4465;50.904;4.696;2023-04-25T05:53:08;7.50;99.90
8858;DHT22;4465;50.904;4.696;2023-04-25T05:55:34;7.50;99.90
8858;DHT22;4465;50.904;4.696;2023-04-25T05:58:04;7.50;99.90
8858;DHT22;4465;50.904;4.696;2023-04-25T06:00:30;7.60;99.90
8858;DHT22;4465;50.904;4.696;2023-04-25T06:02:59;7.60;99.90
8858;DHT22;4465;50.904;4.696;2023-04-25T06:05:25;7.60;99.90
8858;DHT22;4465;50.904;4.696;2023-04-25T06:07:51;7.60;99.90
8858;DHT22;4465;50.904;4.696;2023-04-25T06:10:17;7.60;99.90
8858;DHT22;4465;50.904;4.696;2023-04-25T06:12:42;7.70;99.90
8858;DHT22;4465;50.904;4.696;2023-04-25T06:15:08;7.60;99.90
8858;DHT22;4465;50.904;4.696;2023-04-25T06:17:34;7.70;99.90
8858;DHT22;4465;50.904;4.696;2023-04-25T06:20:03;7.70;99.90
8858;DHT22;4465;50.904;4.696;2023-04-25T06:22:29;7.70;99.90
8858;DHT22;4465;50.904;4.696;2023-04-25T06:24:55;7.80;99.90
8858;DHT22;4465;50.904;4.696;2023-04-25T06:27:29;7.80;99.90
8858;DHT22;4465;50.904;4.696;2023-04-25T06:29:54;7.90;99.90
8858;DHT22;4465;50.904;4.696;2023-04-25T06:32:23;7.90;99.90
8858;DHT22;4465;50.904;4.696;2023-04-25T06:34:51;7.90;99.90
8858;DHT22;4465;50.904;4.696;2023-04-25T06:37:16;8.00;99.90
8858;DHT22;4465;50.904;4.696;2023-04-25T06:39:42;8.00;99.90
8858;DHT22;4465;50.904;4.696;2023-04-25T06:42:08;8.10;99.90
8858;DHT22;4465;50.904;4.696;2023-04-25T06:44:36;8.10;99.90
8858;DHT22;4465;50.904;4.696;2023-04-25T06:47:04;8.10;99.90
8858;DHT22;4465;50.904;4.696;2023-04-25T06:49:30;8.20;99.90
8858;DHT22;4465;50.904;4.696;2023-04-25T06:51:58;8.20;99.90
8858;DHT22;4465;50.904;4.696;2023-04-25T06:54:24;8.30;99.90
8858;DHT22;4465;50.904;4.696;2023-04-25T06:56:52;8.40;99.90
8858;DHT22;4465;50.904;4.696;2023-04-25T06:59:21;8.30;99.90
8858;DHT22;4465;50.904;4.696;2023-04-25T07:01:47;8.40;99.90
8858;DHT22;4465;50.904;4.696;2023-04-25T07:04:13;8.50;99.90
8858;DHT22;4465;50.904;4.696;2023-04-25T07:06:38;8.50;99.90
8858;DHT22;4465;50.904;4.696;2023-04-25T07:09:08;8.50;99.90
8858;DHT22;4465;50.904;4.696;2023-04-25T07:11:35;8.50;99.90
8858;DHT22;4465;50.904;4.696;2023-04-25T07:14:01;8.60;99.90
8858;DHT22;4465;50.904;4.696;2023-04-25T07:16:27;8.60;99.90
8858;DHT22;4465;50.904;4.696;2023-04-25T07:18:55;8.60;99.90
8858;DHT22;4465;50.904;4.696;2023-04-25T07:21:21;8.60;99.90
8858;DHT22;4465;50.904;4.696;2023-04-25T07:23:47;8.70;99.90
8858;DHT22;4465;50.904;4.696;2023-04-25T07:26:13;8.70;99.90
8858;DHT22;4465;50.904;4.696;2023-04-25T07:28:41;8.80;99.90
8858;DHT22;4465;50.904;4.696;2023-04-25T07:31:07;8.80;99.90
8858;DHT22;4465;50.904;4.696;2023-04-25T07:33:35;8.90;99.90
8858;DHT22;4465;50.904;4.696;2023-04-25T07:36:00;8.90;99.90
8858;DHT22;4465;50.904;4.696;2023-04-25T07:38:26;9.00;99.90
8858;DHT22;4465;50.904;4.696;2023-04-25T07:40:52;9.00;99.90
8858;DHT22;4465;50.904;4.696;2023-04-25T07:43:18;9.10;99.90
8858;DHT22;4465;50.904;4.696;2023-04-25T07:45:44;9.10;99.90
8858;DHT22;4465;50.904;4.696;2023-04-25T07:48:16;9.10;99.90
8858;DHT22;4465;50.904;4.696;2023-04-25T07:50:41;9.10;99.90
8858;DHT22;4465;50.904;4.696;2023-04-25T07:53:07;9.20;99.90
8858;DHT22;4465;50.904;4.696;2023-04-25T07:55:35;9.30;99.90
8858;DHT22;4465;50.904;4.696;2023-04-25T07:58:02;9.40;99.90
8858;DHT22;4465;50.904;4.696;2023-04-25T08:00:28;9.50;99.90
8858;DHT22;4465;50.904;4.696;2023-04-25T08:02:54;9.60;99.90
8858;DHT22;4465;50.904;4.696;2023-04-25T08:05:19;9.70;99.90
8858;DHT22;4465;50.904;4.696;2023-04-25T08:07:45;9.80;99.90
8858;DHT22;4465;50.904;4.696;2023-04-25T08:10:13;9.80;99.90
8858;DHT22;4465;50.904;4.696;2023-04-25T08:12:41;9.80;99.90
8858;DHT22;4465;50.904;4.696;2023-04-25T08:15:09;9.80;99.90
8858;DHT22;4465;50.904;4.696;2023-04-25T08:17:35;9.80;99.90
8858;DHT22;4465;50.904;4.696;2023-04-25T08:20:01;9.80;99.90
8858;DHT22;4465;50.904;4.696;2023-04-25T08:22:30;9.80;99.90
8858;DHT22;4465;50.904;4.696;2023-04-25T08:24:56;9.80;99.90
8858;DHT22;4465;50.904;4.696;2023-04-25T08:27:22;9.70;99.90
8858;DHT22;4465;50.904;4.696;2023-04-25T08:29:49;9.70;99.90
8858;DHT22;4465;50.904;4.696;2023-04-25T08:32:20;9.60;99.90
8858;DHT22;4465;50.904;4.696;2023-04-25T08:34:46;9.50;99.90
8858;DHT22;4465;50.904;4.696;2023-04-25T08:37:12;9.50;99.90
8858;DHT22;4465;50.904;4.696;2023-04-25T08:39:38;9.40;99.90
8858;DHT22;4465;50.904;4.696;2023-04-25T08:42:05;9.30;99.90
8858;DHT22;4465;50.904;4.696;2023-04-25T08:44:33;9.30;99.90
8858;DHT22;4465;50.904;4.696;2023-04-25T08:46:59;9.20;99.90
8858;DHT22;4465;50.904;4.696;2023-04-25T08:49:27;9.20;99.90
8858;DHT22;4465;50.904;4.696;2023-04-25T08:51:53;9.20;99.90
8858;DHT22;4465;50.904;4.696;2023-04-25T08:54:22;9.20;99.90
8858;DHT22;4465;50.904;4.696;2023-04-25T08:56:51;9.20;99.90
8858;DHT22;4465;50.904;4.696;2023-04-25T08:59:17;9.30;99.90
8858;DHT22;4465;50.904;4.696;2023-04-25T09:01:43;9.30;99.90
8858;DHT22;4465;50.904;4.696;2023-04-25T09:04:09;9.40;99.90
8858;DHT22;4465;50.904;4.696;2023-04-25T09:06:35;9.60;99.90
8858;DHT22;4465;50.904;4.696;2023-04-25T09:09:04;9.70;99.90
8858;DHT22;4465;50.904;4.696;2023-04-25T09:11:31;9.90;99.90
8858;DHT22;4465;50.904;4.696;2023-04-25T09:14:10;10.10;99.90
8858;DHT22;4465;50.904;4.696;2023-04-25T09:16:36;10.40;99.90
8858;DHT22;4465;50.904;4.696;2023-04-25T09:21:51;11.10;99.90
8858;DHT22;4465;50.904;4.696;2023-04-25T09:24:38;11.30;99.90
8858;DHT22;4465;50.904;4.696;2023-04-25T09:27:05;11.50;99.90
8858;DHT22;4465;50.904;4.696;2023-04-25T09:29:32;11.40;99.90
8858;DHT22;4465;50.904;4.696;2023-04-25T09:34:43;11.20;99.90
8858;DHT22;4465;50.904;4.696;2023-04-25T09:37:10;11.00;99.90
8858;DHT22;4465;50.904;4.696;2023-04-25T09:39:39;11.00;99.90
8858;DHT22;4465;50.904;4.696;2023-04-25T09:42:05;10.90;99.90
8858;DHT22;4465;50.904;4.696;2023-04-25T09:44:33;10.80;99.90
8858;DHT22;4465;50.904;4.696;2023-04-25T09:46:59;10.70;99.90
8858;DHT22;4465;50.904;4.696;2023-04-25T09:49:25;10.60;99.90
8858;DHT22;4465;50.904;4.696;2023-04-25T09:51:55;10.50;99.90
8858;DHT22;4465;50.904;4.696;2023-04-25T09:54:22;10.40;99.90
8858;DHT22;4465;50.904;4.696;2023-04-25T09:56:48;10.30;99.90
8858;DHT22;4465;50.904;4.696;2023-04-25T09:59:16;10.30;99.90
8858;DHT22;4465;50.904;4.696;2023-04-25T10:01:43;10.30;99.90
8858;DHT22;4465;50.904;4.696;2023-04-25T10:04:12;10.30;99.90
8858;DHT22;4465;50.904;4.696;2023-04-25T10:06:39;10.40;99.90
8858;DHT22;4465;50.904;4.696;2023-04-25T10:09:09;10.60;99.90
8858;DHT22;4465;50.904;4.696;2023-04-25T10:11:38;10.80;99.90
8858;DHT22;4465;50.904;4.696;2023-04-25T10:14:05;11.10;99.90
8858;DHT22;4465;50.904;4.696;2023-04-25T10:16:31;11.40;99.90
8858;DHT22;4465;50.904;4.696;2023-04-25T10:18:59;11.70;99.90
8858;DHT22;4465;50.904;4.696;2023-04-25T10:21:27;12.10;99.90
8858;DHT22;4465;50.904;4.696;2023-04-25T10:23:53;12.40;99.90
8858;DHT22;4465;50.904;4.696;2023-04-25T10:26:19;12.60;99.90
8858;DHT22;4465;50.904;4.696;2023-04-25T10:28:59;12.70;99.90
8858;DHT22;4465;50.904;4.696;2023-04-25T10:31:25;12.70;99.90
8858;DHT22;4465;50.904;4.696;2023-04-25T10:33:51;12.70;99.90
8858;DHT22;4465;50.904;4.696;2023-04-25T10:36:17;12.60;99.90
8858;DHT22;4465;50.904;4.696;2023-04-25T10:38:44;12.50;99.90
8858;DHT22;4465;50.904;4.696;2023-04-25T10:41:10;12.50;99.90
8858;DHT22;4465;50.904;4.696;2023-04-25T10:43:43;12.40;99.90
8858;DHT22;4465;50.904;4.696;2023-04-25T10:48:48;12.50;99.90
8858;DHT22;4465;50.904;4.696;2023-04-25T10:51:24;12.60;99.90
8858;DHT22;4465;50.904;4.696;2023-04-25T10:54:03;12.80;99.90
8858;DHT22;4465;50.904;4.696;2023-04-25T10:56:30;13.20;99.90
8858;DHT22;4465;50.904;4.696;2023-04-25T11:01:39;14.20;99.90
8858;DHT22;4465;50.904;4.696;2023-04-25T11:04:05;14.30;99.90
8858;DHT22;4465;50.904;4.696;2023-04-25T11:06:37;14.40;99.90
8858;DHT22;4465;50.904;4.696;2023-04-25T11:09:11;14.30;99.90
8858;DHT22;4465;50.904;4.696;2023-04-25T11:11:38;14.20;99.90
8858;DHT22;4465;50.904;4.696;2023-04-25T11:14:04;14.00;99.90
8858;DHT22;4465;50.904;4.696;2023-04-25T11:16:30;13.90;99.90
8858;DHT22;4465;50.904;4.696;2023-04-25T11:18:58;13.70;99.90
8858;DHT22;4465;50.904;4.696;2023-04-25T11:21:27;13.60;99.90
8858;DHT22;4465;50.904;4.696;2023-04-25T11:23:53;13.40;99.90
8858;DHT22;4465;50.904;4.696;2023-04-25T11:26:23;13.20;99.90
8858;DHT22;4465;50.904;4.696;2023-04-25T11:28:55;13.10;99.90
8858;DHT22;4465;50.904;4.696;2023-04-25T11:31:22;12.90;99.90
8858;DHT22;4465;50.904;4.696;2023-04-25T11:33:49;12.80;99.90
8858;DHT22;4465;50.904;4.696;2023-04-25T11:36:15;12.60;99.90
8858;DHT22;4465;50.904;4.696;2023-04-25T11:38:41;12.50;99.90
8858;DHT22;4465;50.904;4.696;2023-04-25T11:41:07;12.40;99.90
8858;DHT22;4465;50.904;4.696;2023-04-25T11:43:35;12.40;99.90
8858;DHT22;4465;50.904;4.696;2023-04-25T11:46:01;12.40;99.90
8858;DHT22;4465;50.904;4.696;2023-04-25T11:48:36;12.40;99.90
8858;DHT22;4465;50.904;4.696;2023-04-25T11:51:02;12.40;99.90
8858;DHT22;4465;50.904;4.696;2023-04-25T11:53:28;12.40;99.90
8858;DHT22;4465;50.904;4.696;2023-04-25T11:55:54;12.50;99.90
8858;DHT22;4465;50.904;4.696;2023-04-25T11:58:20;12.60;99.90
8858;DHT22;4465;50.904;4.696;2023-04-25T12:00:46;12.80;99.90
8858;DHT22;4465;50.904;4.696;2023-04-25T12:03:11;13.00;99.90
8858;DHT22;4465;50.904;4.696;2023-04-25T12:05:37;13.00;99.90
8858;DHT22;4465;50.904;4.696;2023-04-25T12:08:11;12.90;99.90
8858;DHT22;4465;50.904;4.696;2023-04-25T12:10:40;12.80;99.90
8858;DHT22;4465;50.904;4.696;2023-04-25T12:13:25;12.70;99.90
8858;DHT22;4465;50.904;4.696;2023-04-25T12:15:54;12.70;99.90
8858;DHT22;4465;50.904;4.696;2023-04-25T12:18:20;12.70;99.90
8858;DHT22;4465;50.904;4.696;2023-04-25T12:20:46;13.00;99.90
8858;DHT22;4465;50.904;4.696;2023-04-25T12:23:12;13.40;99.90
8858;DHT22;4465;50.904;4.696;2023-04-25T12:30:55;13.80;99.90
8858;DHT22;4465;50.904;4.696;2023-04-25T12:33:22;13.90;99.90
8858;DHT22;4465;50.904;4.696;2023-04-25T12:35:47;14.20;99.90
8858;DHT22;4465;50.904;4.696;2023-04-25T12:38:23;14.50;99.90
8858;DHT22;4465;50.904;4.696;2023-04-25T12:40:49;14.60;99.90
8858;DHT22;4465;50.904;4.696;2023-04-25T12:43:17;14.60;99.90
8858;DHT22;4465;50.904;4.696;2023-04-25T12:45:50;14.50;99.90
8858;DHT22;4465;50.904;4.696;2023-04-25T12:48:19;14.40;99.90
8858;DHT22;4465;50.904;4.696;2023-04-25T12:50:48;14.50;99.90
8858;DHT22;4465;50.904;4.696;2023-04-25T12:53:15;14.70;99.90
8858;DHT22;4465;50.904;4.696;2023-04-25T12:55:40;14.90;99.90
8858;DHT22;4465;50.904;4.696;2023-04-25T12:58:09;15.30;99.90
8858;DHT22;4465;50.904;4.696;2023-04-25T13:00:35;15.70;99.90
8858;DHT22;4465;50.904;4.696;2023-04-25T13:03:04;16.00;99.90
8858;DHT22;4465;50.904;4.696;2023-04-25T13:05:30;16.20;99.90
8858;DHT22;4465;50.904;4.696;2023-04-25T13:07:58;16.30;99.90
8858;DHT22;4465;50.904;4.696;2023-04-25T13:10:24;16.30;99.90
8858;DHT22;4465;50.904;4.696;2023-04-25T13:12:53;16.30;99.90
8858;DHT22;4465;50.904;4.696;2023-04-25T13:15:19;16.20;99.90
8858;DHT22;4465;50.904;4.696;2023-04-25T13:17:47;16.00;99.90
8858;DHT22;4465;50.904;4.696;2023-04-25T13:20:13;15.70;99.90
8858;DHT22;4465;50.904;4.696;2023-04-25T13:22:42;15.70;99.90
8858;DHT22;4465;50.904;4.696;2023-04-25T13:25:08;15.90;99.90
8858;DHT22;4465;50.904;4.696;2023-04-25T13:27:35;16.20;99.90
8858;DHT22;4465;50.904;4.696;2023-04-25T13:30:01;16.50;99.90
8858;DHT22;4465;50.904;4.696;2023-04-25T13:32:35;16.90;99.90
8858;DHT22;4465;50.904;4.696;2023-04-25T13:35:02;17.10;99.90
8858;DHT22;4465;50.904;4.696;2023-04-25T13:37:28;17.20;99.90
8858;DHT22;4465;50.904;4.696;2023-04-25T13:39:55;17.10;99.90
8858;DHT22;4465;50.904;4.696;2023-04-25T13:42:22;16.80;99.90
8858;DHT22;4465;50.904;4.696;2023-04-25T13:44:51;16.50;99.90
8858;DHT22;4465;50.904;4.696;2023-04-25T13:47:17;16.20;99.90
8858;DHT22;4465;50.904;4.696;2023-04-25T13:49:45;16.10;99.90
8858;DHT22;4465;50.904;4.696;2023-04-25T13:52:10;16.00;99.90
8858;DHT22;4465;50.904;4.696;2023-04-25T13:54:36;16.00;99.90
8858;DHT22;4465;50.904;4.696;2023-04-25T13:57:02;16.00;99.90
8858;DHT22;4465;50.904;4.696;2023-04-25T13:59:28;15.90;99.90
8858;DHT22;4465;50.904;4.696;2023-04-25T14:01:54;15.90;99.90
8858;DHT22;4465;50.904;4.696;2023-04-25T14:04:19;15.90;99.90
8858;DHT22;4465;50.904;4.696;2023-04-25T14:06:45;15.90;99.90
8858;DHT22;4465;50.904;4.696;2023-04-25T14:09:11;15.80;99.90
8858;DHT22;4465;50.904;4.696;2023-04-25T14:11:43;15.70;99.90
8858;DHT22;4465;50.904;4.696;2023-04-25T14:14:08;15.70;99.90
8858;DHT22;4465;50.904;4.696;2023-04-25T14:16:34;15.50;99.90
8858;DHT22;4465;50.904;4.696;2023-04-25T14:19:00;15.50;99.90
8858;DHT22;4465;50.904;4.696;2023-04-25T14:21:31;15.50;99.90
8858;DHT22;4465;50.904;4.696;2023-04-25T14:23:57;15.40;99.90
8858;DHT22;4465;50.904;4.696;2023-04-25T14:26:23;15.40;99.90
8858;DHT22;4465;50.904;4.696;2023-04-25T14:28:51;15.40;99.90
8858;DHT22;4465;50.904;4.696;2023-04-25T14:31:17;15.40;99.90
8858;DHT22;4465;50.904;4.696;2023-04-25T14:33:43;15.30;99.90
8858;DHT22;4465;50.904;4.696;2023-04-25T14:36:09;15.40;99.90
8858;DHT22;4465;50.904;4.696;2023-04-25T14:38:35;15.30;99.90
8858;DHT22;4465;50.904;4.696;2023-04-25T14:41:01;15.30;99.90
8858;DHT22;4465;50.904;4.696;2023-04-25T14:43:27;15.20;99.90
8858;DHT22;4465;50.904;4.696;2023-04-25T14:45:53;15.10;99.90
8858;DHT22;4465;50.904;4.696;2023-04-25T14:48:21;15.10;99.90
8858;DHT22;4465;50.904;4.696;2023-04-25T14:50:46;15.00;99.90
8858;DHT22;4465;50.904;4.696;2023-04-25T14:53:12;14.90;99.90
8858;DHT22;4465;50.904;4.696;2023-04-25T14:55:38;14.80;99.90
8858;DHT22;4465;50.904;4.696;2023-04-25T14:58:04;14.60;99.90
8858;DHT22;4465;50.904;4.696;2023-04-25T15:00:30;14.50;99.90
8858;DHT22;4465;50.904;4.696;2023-04-25T15:02:59;14.40;99.90
8858;DHT22;4465;50.904;4.696;2023-04-25T15:05:25;14.20;99.90
8858;DHT22;4465;50.904;4.696;2023-04-25T15:07:53;14.10;99.90
8858;DHT22;4465;50.904;4.696;2023-04-25T15:10:21;13.90;99.90
8858;DHT22;4465;50.904;4.696;2023-04-25T15:12:47;13.80;99.90
8858;DHT22;4465;50.904;4.696;2023-04-25T15:15:16;13.60;99.90
8858;DHT22;4465;50.904;4.696;2023-04-25T15:17:41;13.50;99.90
8858;DHT22;4465;50.904;4.696;2023-04-25T15:20:10;13.50;99.90
8858;DHT22;4465;50.904;4.696;2023-04-25T15:22:36;13.40;99.90
8858;DHT22;4465;50.904;4.696;2023-04-25T15:25:04;13.30;99.90
8858;DHT22;4465;50.904;4.696;2023-04-25T15:27:32;13.20;99.90
8858;DHT22;4465;50.904;4.696;2023-04-25T15:30:06;13.10;99.90
8858;DHT22;4465;50.904;4.696;2023-04-25T15:32:33;13.00;99.90
8858;DHT22;4465;50.904;4.696;2023-04-25T15:34:59;12.90;99.90
8858;DHT22;4465;50.904;4.696;2023-04-25T15:37:25;12.80;99.90
8858;DHT22;4465;50.904;4.696;2023-04-25T15:40:00;12.70;99.90
8858;DHT22;4465;50.904;4.696;2023-04-25T15:42:26;12.60;99.90
8858;DHT22;4465;50.904;4.696;2023-04-25T15:44:51;12.50;99.90
8858;DHT22;4465;50.904;4.696;2023-04-25T15:47:20;12.40;99.90
8858;DHT22;4465;50.904;4.696;2023-04-25T15:49:48;12.40;99.90
8858;DHT22;4465;50.904;4.696;2023-04-25T15:52:16;12.30;99.90
8858;DHT22;4465;50.904;4.696;2023-04-25T15:54:46;12.30;99.90
8858;DHT22;4465;50.904;4.696;2023-04-25T15:57:12;12.20;99.90
8858;DHT22;4465;50.904;4.696;2023-04-25T15:59:38;12.20;99.90
8858;DHT22;4465;50.904;4.696;2023-04-25T16:02:03;12.10;99.90
8858;DHT22;4465;50.904;4.696;2023-04-25T16:04:29;12.10;99.90
8858;DHT22;4465;50.904;4.696;2023-04-25T16:07:00;12.00;99.90
8858;DHT22;4465;50.904;4.696;2023-04-25T16:09:32;12.00;99.90
8858;DHT22;4465;50.904;4.696;2023-04-25T16:11:59;11.90;99.90
8858;DHT22;4465;50.904;4.696;2023-04-25T16:14:25;11.90;99.90
8858;DHT22;4465;50.904;4.696;2023-04-25T16:16:50;11.80;99.90
8858;DHT22;4465;50.904;4.696;2023-04-25T16:19:16;11.80;99.90
8858;DHT22;4465;50.904;4.696;2023-04-25T16:21:42;11.70;99.90
8858;DHT22;4465;50.904;4.696;2023-04-25T16:24:13;11.70;99.90
8858;DHT22;4465;50.904;4.696;2023-04-25T16:26:39;11.70;99.90